Fairview Heights, Illinois
Current Conditions -  °F | °C
As of 9:15 AM on Thursday 18 Dec 2014 (Local Time) from KCPS Reporting Station
Haze Haze  
Wind Chill: 26°   Ceiling: 4200
Heat Index: 31°   Visibility: 3mi
Dew Point: 27°   Wind: 5mph
Humidity: 85%   Direction: 60°ENE
Pressure: 30.31"   Gusts: NA
Location:  38.6°N, 90.01°W
Report Text: KCPS 181515Z 06004KT 3SM BR SCT009 OVC042 M01/M03 A3031 RMK AO2 SNE14 P0000 T10061028
Loading
Personal Weather Stations






























Interactive Weather Map New forecast layout! Learn more

10-Day Weather Forecast

Advertisements
Track Severe Weather on mobile